Time;durP1;ratioP1;P1;durP2;ratioP2;P2;SDS_P1;SDS_P2;PMS_P1;PMS_P2;Temp;Humidity;BMP_temperature;BMP_pressure;BME280_temperature;BME280_humidity;BME280_pressure;Samples;Min_cycle;Max_cycle;Signal;HPM_P1;HPM_P2
2022/07/18 00:01:38;;;;;;;4.60;3.10;;;18.30;99.90;;;;;;5029877;28;20037;-76
2022/07/18 00:04:03;;;;;;;5.28;3.10;;;18.30;99.90;;;;;;5028759;28;20055;-77
2022/07/18 00:06:29;;;;;;;5.80;3.40;;;18.30;99.90;;;;;;5029785;28;20503;-76
2022/07/18 00:08:54;;;;;;;4.95;3.13;;;18.20;99.90;;;;;;5029527;28;20045;-76
2022/07/18 00:11:21;;;;;;;4.53;3.45;;;18.30;99.90;;;;;;5029437;28;20628;-76
2022/07/18 00:13:47;;;;;;;4.22;3.33;;;18.20;99.90;;;;;;5029071;28;20068;-76
2022/07/18 00:16:13;;;;;;;4.75;3.50;;;18.10;99.90;;;;;;5029486;28;20487;-76
2022/07/18 00:18:39;;;;;;;5.45;4.10;;;18.10;99.90;;;;;;5029629;28;20056;-76
2022/07/18 00:21:05;;;;;;;6.30;4.15;;;18.10;99.90;;;;;;5029484;28;20077;-77
2022/07/18 00:23:31;;;;;;;6.82;4.40;;;18.10;99.90;;;;;;5028838;28;20037;-76
2022/07/18 00:25:56;;;;;;;5.55;4.25;;;18.10;99.90;;;;;;5028907;28;20041;-76
2022/07/18 00:28:22;;;;;;;5.78;4.30;;;18.10;99.90;;;;;;5029479;28;20465;-76
2022/07/18 00:30:47;;;;;;;4.75;3.50;;;18.10;99.90;;;;;;5013067;28;20403;-76
2022/07/18 00:33:13;;;;;;;4.93;3.25;;;18.00;99.90;;;;;;5029285;28;20087;-75
2022/07/18 00:35:39;;;;;;;5.20;3.70;;;17.90;99.90;;;;;;5028555;28;20101;-75
2022/07/18 00:38:04;;;;;;;5.00;3.70;;;17.90;99.90;;;;;;5032855;28;20189;-76
2022/07/18 00:40:32;;;;;;;8.05;3.72;;;17.80;99.90;;;;;;5033073;28;20564;-76
2022/07/18 00:42:58;;;;;;;6.43;3.78;;;17.70;99.90;;;;;;5016513;28;20034;-76
2022/07/18 00:45:24;;;;;;;4.43;3.63;;;17.60;99.90;;;;;;5032212;28;20552;-75
2022/07/18 00:47:51;;;;;;;6.38;3.90;;;17.60;99.90;;;;;;5032864;28;20548;-75
2022/07/18 00:50:18;;;;;;;8.43;3.65;;;17.50;99.90;;;;;;5032846;28;20056;-76
2022/07/18 00:52:43;;;;;;;4.47;3.50;;;17.50;99.90;;;;;;5032674;28;20091;-76
2022/07/18 00:55:09;;;;;;;6.78;3.53;;;17.40;99.90;;;;;;5032013;28;20037;-76
2022/07/18 00:57:37;;;;;;;5.30;3.28;;;17.30;99.90;;;;;;5032824;28;20127;-76
2022/07/18 01:02:49;;;;;;;6.18;3.58;;;17.20;99.90;;;;;;5048436;28;20511;-76
2022/07/18 01:05:15;;;;;;;7.28;4.35;;;17.20;99.90;;;;;;5030209;28;20045;-76
2022/07/18 01:07:40;;;;;;;5.38;3.30;;;17.10;99.90;;;;;;5031832;28;20037;-76
2022/07/18 01:10:06;;;;;;;4.82;3.50;;;17.10;99.90;;;;;;5032367;28;20047;-76
2022/07/18 01:12:32;;;;;;;5.88;3.53;;;17.10;99.90;;;;;;5032225;28;20040;-76
2022/07/18 01:14:58;;;;;;;6.50;4.50;;;17.00;99.90;;;;;;5031778;28;20041;-76
2022/07/18 01:17:24;;;;;;;6.38;4.60;;;17.00;99.90;;;;;;5032309;28;20044;-76
2022/07/18 01:19:50;;;;;;;7.78;4.60;;;17.00;99.90;;;;;;5015804;28;20033;-76
2022/07/18 01:22:18;;;;;;;5.32;3.90;;;17.00;99.90;;;;;;5032229;28;20051;-76
2022/07/18 01:24:44;;;;;;;6.60;4.20;;;17.00;99.90;;;;;;5031458;28;20056;-76
2022/07/18 01:27:19;;;;;;;5.53;3.78;;;17.00;99.90;;;;;;5032031;28;20045;-77
2022/07/18 01:29:45;;;;;;;6.20;4.32;;;16.80;99.90;;;;;;5032029;28;20508;-76
2022/07/18 01:32:12;;;;;;;5.65;4.43;;;16.80;99.90;;;;;;5031993;28;20088;-76
2022/07/18 01:34:37;;;;;;;6.03;4.07;;;16.70;99.90;;;;;;5029881;28;20045;-76
2022/07/18 01:37:04;;;;;;;5.47;3.90;;;16.70;99.90;;;;;;5031335;28;20083;-77
2022/07/18 01:39:30;;;;;;;6.20;4.13;;;16.70;99.90;;;;;;5050044;28;20502;-77
2022/07/18 01:41:58;;;;;;;6.00;3.88;;;16.70;99.90;;;;;;5037515;28;20044;-76
2022/07/18 01:44:24;;;;;;;6.10;4.43;;;16.70;99.90;;;;;;5030736;28;20041;-77
2022/07/18 01:46:50;;;;;;;6.43;3.90;;;16.60;99.90;;;;;;5030888;28;20112;-77
2022/07/18 01:49:17;;;;;;;7.32;4.60;;;16.60;99.90;;;;;;5031196;28;20049;-77
2022/07/18 01:51:51;;;;;;;5.13;4.03;;;16.50;99.90;;;;;;5031564;28;20041;-77
2022/07/18 01:54:20;;;;;;;5.78;4.43;;;16.50;99.90;;;;;;5030950;28;20045;-76
2022/07/18 01:56:45;;;;;;;7.18;4.72;;;16.40;99.90;;;;;;5031032;28;20124;-77
2022/07/18 01:59:11;;;;;;;10.25;5.05;;;16.30;99.90;;;;;;5031859;28;20073;-77
2022/07/18 02:01:37;;;;;;;6.85;4.50;;;16.30;99.90;;;;;;5031708;28;20052;-77
2022/07/18 02:04:02;;;;;;;6.63;4.97;;;16.10;99.90;;;;;;5030860;28;20041;-77
2022/07/18 02:06:28;;;;;;;8.30;4.80;;;16.00;99.90;;;;;;5030493;28;20044;-77
2022/07/18 02:08:54;;;;;;;7.53;4.45;;;16.00;99.90;;;;;;5030193;28;20049;-77
2022/07/18 02:11:19;;;;;;;6.82;4.47;;;16.00;99.90;;;;;;5031086;28;20581;-77
2022/07/18 02:13:45;;;;;;;7.05;4.60;;;16.10;99.90;;;;;;5030844;28;20128;-77
2022/07/18 02:16:10;;;;;;;6.88;4.85;;;16.20;99.90;;;;;;5031420;28;20037;-77
2022/07/18 02:18:36;;;;;;;7.03;4.70;;;16.20;99.90;;;;;;5043852;28;20041;-76
2022/07/18 02:21:02;;;;;;;6.90;4.60;;;16.20;99.90;;;;;;5052372;28;20029;-76
2022/07/18 02:23:28;;;;;;;6.22;4.78;;;16.20;99.90;;;;;;5050208;28;20083;-76
2022/07/18 02:25:54;;;;;;;5.72;4.50;;;16.20;99.90;;;;;;5049750;28;20095;-76
2022/07/18 02:28:20;;;;;;;6.38;4.57;;;16.20;99.90;;;;;;5051231;28;20045;-77
2022/07/18 02:30:48;;;;;;;5.25;4.50;;;16.10;99.90;;;;;;5041414;28;20037;-77
2022/07/18 02:33:16;;;;;;;6.75;5.05;;;16.20;99.90;;;;;;5030952;28;20048;-77
2022/07/18 02:35:42;;;;;;;7.97;5.10;;;16.10;99.90;;;;;;5029724;28;20034;-76
2022/07/18 02:38:08;;;;;;;9.05;5.13;;;16.10;99.90;;;;;;5030969;28;20487;-77
2022/07/18 02:40:34;;;;;;;6.65;4.68;;;16.10;99.90;;;;;;5030828;28;20048;-77
2022/07/18 02:43:00;;;;;;;7.65;5.25;;;16.10;99.90;;;;;;5030434;28;20034;-76
2022/07/18 02:45:26;;;;;;;6.35;5.05;;;16.10;99.90;;;;;;5030132;28;20060;-77
2022/07/18 02:47:52;;;;;;;6.80;5.07;;;16.00;99.90;;;;;;5031948;28;20041;-76
2022/07/18 02:50:17;;;;;;;9.02;5.07;;;16.00;99.90;;;;;;5030527;28;20037;-76
2022/07/18 02:52:43;;;;;;;9.52;5.45;;;16.00;99.90;;;;;;5030267;28;20045;-76
2022/07/18 02:55:11;;;;;;;7.63;5.57;;;16.00;99.90;;;;;;5029675;28;20064;-76
2022/07/18 02:57:37;;;;;;;7.72;5.43;;;16.00;99.90;;;;;;5030453;28;20037;-76
2022/07/18 03:00:05;;;;;;;8.05;5.70;;;16.00;99.90;;;;;;5030253;28;20570;-76
2022/07/18 03:02:30;;;;;;;7.45;5.35;;;16.00;99.90;;;;;;5030351;28;20046;-76
2022/07/18 03:04:56;;;;;;;9.10;5.93;;;16.00;99.90;;;;;;5029600;28;20049;-76
2022/07/18 03:07:21;;;;;;;8.95;5.45;;;16.00;99.90;;;;;;5030177;28;20049;-76
2022/07/18 03:09:47;;;;;;;9.02;5.82;;;16.10;99.90;;;;;;5030169;28;20503;-76
2022/07/18 03:12:12;;;;;;;7.15;5.50;;;16.00;99.90;;;;;;5030119;28;20057;-76
2022/07/18 03:14:38;;;;;;;10.30;6.28;;;16.10;99.90;;;;;;5029535;28;20041;-76
2022/07/18 03:17:03;;;;;;;8.00;5.45;;;16.10;99.90;;;;;;5013655;28;20088;-76
2022/07/18 03:19:29;;;;;;;7.82;5.85;;;16.00;99.90;;;;;;5030214;28;20450;-77
2022/07/18 03:21:55;;;;;;;7.38;5.60;;;15.90;99.90;;;;;;5029914;28;20045;-76
2022/07/18 03:24:20;;;;;;;9.70;6.10;;;15.90;99.90;;;;;;5029430;28;20045;-77
2022/07/18 03:26:46;;;;;;;7.90;5.75;;;15.90;99.90;;;;;;5029942;28;20041;-77
2022/07/18 03:29:12;;;;;;;8.93;5.63;;;16.00;99.90;;;;;;5030042;28;20041;-76
2022/07/18 03:31:37;;;;;;;6.68;5.65;;;16.00;99.90;;;;;;5029891;28;20048;-77
2022/07/18 03:34:03;;;;;;;10.00;6.03;;;16.00;99.90;;;;;;5013256;28;20479;-77
2022/07/18 03:36:29;;;;;;;9.48;5.55;;;16.00;99.90;;;;;;5029025;28;20041;-77
2022/07/18 03:38:55;;;;;;;8.82;5.82;;;16.00;99.90;;;;;;5035818;28;20037;-77
2022/07/18 03:41:20;;;;;;;9.45;5.70;;;15.90;99.90;;;;;;5030187;28;20029;-77
2022/07/18 03:43:46;;;;;;;7.97;6.10;;;15.90;99.90;;;;;;5029155;28;20036;-77
2022/07/18 03:46:11;;;;;;;10.80;5.57;;;15.80;99.90;;;;;;5029853;28;20048;-77
2022/07/18 03:48:37;;;;;;;6.55;5.47;;;15.80;99.90;;;;;;5029804;28;20597;-77
2022/07/18 03:51:03;;;;;;;10.13;6.10;;;15.80;99.90;;;;;;5029743;28;20377;-77
2022/07/18 03:53:30;;;;;;;8.63;5.40;;;15.90;99.90;;;;;;5029626;28;20049;-77
2022/07/18 03:55:55;;;;;;;9.05;5.72;;;15.90;99.90;;;;;;5029381;28;20419;-77
2022/07/18 03:58:21;;;;;;;11.38;6.35;;;15.80;99.90;;;;;;5030035;28;20033;-77
2022/07/18 04:00:47;;;;;;;9.38;6.00;;;15.80;99.90;;;;;;5029747;28;20116;-77
2022/07/18 04:03:14;;;;;;;7.68;5.47;;;15.90;99.90;;;;;;5029878;28;20045;-77
2022/07/18 04:05:39;;;;;;;8.07;5.93;;;15.90;99.90;;;;;;5028713;28;20407;-77
2022/07/18 04:08:05;;;;;;;9.38;6.10;;;15.90;99.90;;;;;;5029695;28;20541;-77
2022/07/18 04:10:31;;;;;;;10.23;5.82;;;15.90;99.90;;;;;;5049667;28;20522;-77
2022/07/18 04:12:56;;;;;;;8.25;5.55;;;15.90;99.90;;;;;;5053441;28;20060;-77
2022/07/18 04:15:24;;;;;;;7.85;5.75;;;15.90;99.90;;;;;;5034604;28;20037;-77
2022/07/18 04:17:50;;;;;;;6.70;5.47;;;15.90;99.90;;;;;;5033520;28;20044;-77
2022/07/18 04:20:18;;;;;;;9.45;5.75;;;16.00;99.90;;;;;;5033246;28;20033;-77
2022/07/18 04:23:06;;;;;;;8.43;5.78;;;16.00;99.90;;;;;;5033248;28;20048;-77
2022/07/18 04:25:39;;;;;;;7.18;5.15;;;16.10;99.90;;;;;;5032830;28;20459;-77
2022/07/18 04:28:07;;;;;;;;;;;16.20;99.90;;;;;;5033961;28;20039;-78
2022/07/18 04:30:33;;;;;;;7.60;5.45;;;16.20;99.90;;;;;;5033406;28;20003;-77
2022/07/18 04:33:03;;;;;;;7.25;5.30;;;16.20;99.90;;;;;;5031674;28;20045;-77
2022/07/18 04:35:29;;;;;;;8.45;5.60;;;16.20;99.90;;;;;;5032733;28;20037;-77
2022/07/18 04:37:54;;;;;;;7.75;5.35;;;16.30;99.90;;;;;;5033209;28;20033;-77
2022/07/18 04:40:20;;;;;;;8.27;5.57;;;16.40;99.90;;;;;;5033007;28;20045;-77
2022/07/18 04:42:46;;;;;;;9.30;5.35;;;16.40;99.90;;;;;;5031642;28;20086;-77
2022/07/18 04:45:11;;;;;;;7.07;5.28;;;16.50;99.90;;;;;;5031998;28;20088;-77
2022/07/18 04:47:37;;;;;;;8.10;5.25;;;16.50;99.90;;;;;;5033088;28;20503;-77
2022/07/18 04:50:05;;;;;;;7.70;5.40;;;16.60;99.90;;;;;;5034214;28;20049;-77
2022/07/18 04:52:41;;;;;;;7.93;5.40;;;16.60;99.90;;;;;;5031758;28;20403;-77
2022/07/18 04:55:09;;;;;;;8.55;5.35;;;16.70;99.90;;;;;;5032141;28;20048;-77
2022/07/18 04:57:36;;;;;;;8.60;5.22;;;16.70;99.90;;;;;;5032617;28;20045;-77
2022/07/18 05:00:07;;;;;;;8.70;4.80;;;16.70;99.90;;;;;;5032803;28;20064;-77
2022/07/18 05:02:33;;;;;;;9.18;5.30;;;16.80;99.90;;;;;;5032634;28;20046;-77
2022/07/18 05:04:59;;;;;;;7.57;4.80;;;16.80;99.90;;;;;;5032014;28;20127;-77
2022/07/18 05:07:24;;;;;;;8.73;5.45;;;16.80;99.90;;;;;;5032467;28;20073;-77
2022/07/18 05:09:50;;;;;;;11.30;5.00;;;16.70;99.90;;;;;;5032577;28;20041;-77
2022/07/18 05:12:15;;;;;;;9.13;5.25;;;16.80;99.90;;;;;;5032246;28;20041;-77
2022/07/18 05:14:41;;;;;;;9.05;4.80;;;16.80;99.90;;;;;;5031658;28;20047;-77
2022/07/18 05:17:06;;;;;;;11.18;5.25;;;16.80;99.90;;;;;;5032355;28;20081;-77
2022/07/18 05:19:32;;;;;;;8.10;5.13;;;16.90;99.90;;;;;;5032009;28;20030;-76
2022/07/18 05:21:58;;;;;;;7.13;4.90;;;16.90;99.90;;;;;;5030710;28;20037;-76
2022/07/18 05:24:23;;;;;;;9.25;5.28;;;16.90;99.90;;;;;;5029877;28;20114;-76
2022/07/18 05:26:49;;;;;;;7.35;4.90;;;16.90;99.90;;;;;;5032117;28;20124;-77
2022/07/18 05:29:16;;;;;;;5.97;4.47;;;17.00;99.90;;;;;;5015647;28;20099;-77
2022/07/18 05:31:41;;;;;;;9.70;5.18;;;17.10;99.90;;;;;;5032347;28;20069;-77
2022/07/18 05:34:07;;;;;;;9.52;4.95;;;17.10;99.90;;;;;;5031430;28;20049;-76
2022/07/18 05:36:33;;;;;;;9.30;5.10;;;17.20;99.90;;;;;;5031918;28;20038;-76
2022/07/18 05:38:59;;;;;;;7.18;5.22;;;17.20;99.90;;;;;;5028155;28;20403;-76
2022/07/18 05:41:24;;;;;;;8.63;5.07;;;17.30;99.90;;;;;;5048924;28;20120;-77
2022/07/18 05:43:50;;;;;;;9.05;4.70;;;17.30;99.90;;;;;;5023668;28;20040;-76
2022/07/18 05:46:15;;;;;;;10.05;5.20;;;17.30;99.90;;;;;;5031799;28;20384;-76
2022/07/18 05:48:41;;;;;;;8.95;4.90;;;17.40;99.90;;;;;;5042549;28;20068;-77
2022/07/18 05:51:07;;;;;;;8.75;4.70;;;17.40;99.90;;;;;;5051606;28;20045;-77
2022/07/18 05:53:33;;;;;;;10.88;5.07;;;17.40;99.90;;;;;;5039027;28;20049;-77
2022/07/18 05:55:58;;;;;;;13.02;4.70;;;17.50;99.90;;;;;;5030662;28;20056;-77
2022/07/18 05:58:24;;;;;;;7.18;4.63;;;17.50;99.90;;;;;;5031558;28;20033;-77
2022/07/18 06:00:50;;;;;;;8.13;4.50;;;17.60;99.90;;;;;;5031482;28;20037;-76
2022/07/18 06:03:16;;;;;;;7.05;4.30;;;17.50;99.90;;;;;;5031534;28;20034;-76
2022/07/18 06:05:41;;;;;;;7.93;4.40;;;17.70;99.90;;;;;;5029797;28;20051;-76
2022/07/18 06:08:07;;;;;;;6.70;4.15;;;17.80;99.90;;;;;;5030427;28;20073;-77
2022/07/18 06:10:32;;;;;;;7.35;4.60;;;17.90;99.90;;;;;;5031334;28;20128;-77
2022/07/18 06:12:58;;;;;;;8.77;4.40;;;18.00;99.90;;;;;;5031331;28;20486;-76
2022/07/18 06:15:24;;;;;;;6.13;3.90;;;18.10;99.90;;;;;;5030455;28;20037;-76
2022/07/18 06:17:50;;;;;;;6.93;4.10;;;18.20;99.90;;;;;;5031189;28;20068;-76
2022/07/18 06:20:16;;;;;;;7.07;3.97;;;18.30;99.90;;;;;;5030200;28;20084;-76
2022/07/18 06:22:42;;;;;;;7.20;3.90;;;18.30;99.90;;;;;;5032002;28;20414;-76
2022/07/18 06:25:08;;;;;;;6.63;3.53;;;18.50;99.90;;;;;;5030607;28;20098;-77
2022/07/18 06:27:35;;;;;;;5.68;3.25;;;18.50;99.90;;;;;;5047838;28;20140;-76
2022/07/18 06:30:04;;;;;;;6.97;3.28;;;18.70;99.90;;;;;;5032423;28;20117;-77
2022/07/18 06:32:30;;;;;;;8.80;3.70;;;19.00;99.90;;;;;;5030650;28;20045;-77
2022/07/18 06:34:55;;;;;;;9.25;3.22;;;19.10;99.90;;;;;;5029759;28;20037;-76
2022/07/18 06:37:21;;;;;;;6.22;3.10;;;19.30;99.90;;;;;;5030954;28;20114;-76
2022/07/18 06:39:46;;;;;;;5.65;2.92;;;19.30;99.90;;;;;;5030770;28;20037;-77
2022/07/18 06:42:12;;;;;;;4.35;2.60;;;19.30;99.90;;;;;;5030660;28;20041;-76
2022/07/18 06:44:37;;;;;;;6.45;2.90;;;19.30;99.90;;;;;;5030039;28;20178;-76
2022/07/18 06:47:03;;;;;;;7.25;2.90;;;19.30;99.90;;;;;;5030594;28;20053;-76
2022/07/18 06:49:28;;;;;;;6.45;2.95;;;19.40;99.90;;;;;;5031459;28;20049;-76
2022/07/18 06:51:54;;;;;;;7.00;2.67;;;19.50;99.90;;;;;;5030122;28;20116;-76
2022/07/18 06:54:20;;;;;;;8.20;2.80;;;19.60;99.90;;;;;;5028818;28;20044;-76
2022/07/18 06:56:46;;;;;;;7.72;2.90;;;19.70;99.90;;;;;;5031380;28;20045;-76
2022/07/18 06:59:11;;;;;;;5.25;2.42;;;20.00;99.90;;;;;;5037579;28;20076;-76
2022/07/18 07:01:37;;;;;;;9.07;2.45;;;20.20;99.90;;;;;;5043193;28;20094;-77
2022/07/18 07:04:03;;;;;;;6.18;2.50;;;20.30;99.90;;;;;;5013289;28;20449;-76
2022/07/18 07:06:28;;;;;;;7.32;2.58;;;20.60;99.90;;;;;;5030313;28;20060;-76
2022/07/18 07:08:54;;;;;;;6.40;2.35;;;20.80;99.90;;;;;;5029281;28;20044;-77
2022/07/18 07:11:21;;;;;;;7.30;2.70;;;20.90;99.90;;;;;;5029923;28;20033;-77
2022/07/18 07:13:47;;;;;;;6.38;2.58;;;21.10;99.90;;;;;;5029949;28;20449;-76
2022/07/18 07:16:13;;;;;;;5.55;2.20;;;21.30;99.90;;;;;;5030089;28;20136;-76
2022/07/18 07:18:38;;;;;;;12.18;2.50;;;21.40;99.90;;;;;;5029909;28;20171;-77
2022/07/18 07:21:05;;;;;;;4.30;2.10;;;21.50;99.90;;;;;;5030456;28;20110;-77
2022/07/18 07:23:31;;;;;;;3.88;2.05;;;21.70;99.90;;;;;;5039643;28;20403;-78
2022/07/18 07:25:56;;;;;;;3.95;2.13;;;21.80;99.90;;;;;;5042413;28;20082;-78
2022/07/18 07:28:22;;;;;;;4.10;2.20;;;21.90;99.90;;;;;;5034689;28;20078;-78
2022/07/18 07:30:48;;;;;;;5.03;2.13;;;21.80;99.90;;;;;;5035230;28;20104;-78
2022/07/18 07:33:13;;;;;;;6.00;2.40;;;21.90;99.70;;;;;;5018103;28;20496;-78
2022/07/18 07:35:39;;;;;;;8.15;2.03;;;22.00;99.30;;;;;;5033320;28;20495;-78
2022/07/18 07:38:04;;;;;;;3.17;1.80;;;22.00;99.10;;;;;;5035518;28;20049;-78
2022/07/18 07:40:30;;;;;;;5.90;2.22;;;22.10;99.40;;;;;;5035749;28;20065;-78
2022/07/18 07:43:10;;;;;;;6.45;2.10;;;22.40;99.30;;;;;;5035232;28;20049;-78
2022/07/18 07:45:36;;;;;;;6.70;2.05;;;22.60;99.30;;;;;;5035379;28;20095;-78
2022/07/18 07:48:02;;;;;;;4.25;2.00;;;22.80;99.30;;;;;;5050304;28;20040;-78
2022/07/18 07:50:28;;;;;;;8.02;1.95;;;23.00;98.70;;;;;;5039752;28;20495;-78
2022/07/18 07:52:53;;;;;;;4.65;1.88;;;23.30;98.40;;;;;;5040464;28;20636;-79
2022/07/18 07:55:19;;;;;;;3.80;2.20;;;23.50;98.20;;;;;;5038819;28;20507;-79
2022/07/18 07:57:44;;;;;;;3.95;1.80;;;23.50;97.90;;;;;;5040765;28;20515;-79
2022/07/18 08:00:10;;;;;;;4.13;1.90;;;23.60;97.20;;;;;;5040440;28;20084;-79
2022/07/18 08:02:37;;;;;;;6.45;2.00;;;23.70;96.70;;;;;;5038387;28;20041;-79
2022/07/18 08:05:03;;;;;;;4.30;2.03;;;23.90;96.10;;;;;;5059485;28;20041;-79
2022/07/18 08:07:29;;;;;;;4.78;1.65;;;23.90;95.60;;;;;;5047212;28;20045;-79
2022/07/18 08:09:54;;;;;;;5.45;1.70;;;24.00;95.20;;;;;;5039962;28;20152;-79
2022/07/18 08:12:20;;;;;;;5.35;1.83;;;23.90;94.80;;;;;;5042837;28;20042;-79
2022/07/18 08:14:45;;;;;;;6.57;1.70;;;23.90;94.80;;;;;;5054740;28;20033;-79
2022/07/18 08:17:11;;;;;;;3.58;1.80;;;23.90;94.70;;;;;;5060119;28;20521;-79
2022/07/18 08:19:36;;;;;;;7.30;1.98;;;23.80;94.80;;;;;;5044701;28;20033;-79
2022/07/18 08:22:02;;;;;;;3.97;1.90;;;23.90;95.10;;;;;;5037052;28;20044;-79
2022/07/18 08:24:28;;;;;;;6.68;2.00;;;24.10;95.00;;;;;;5058598;28;20047;-79
2022/07/18 08:26:53;;;;;;;3.28;2.00;;;24.30;94.80;;;;;;5054007;28;20519;-79
2022/07/18 08:29:19;;;;;;;5.72;1.98;;;24.50;94.50;;;;;;5039587;28;20067;-79
2022/07/18 08:31:44;;;;;;;5.47;1.80;;;24.70;94.90;;;;;;5038665;28;20034;-79
2022/07/18 08:34:10;;;;;;;3.38;1.58;;;24.90;94.70;;;;;;5039134;28;20064;-79
2022/07/18 08:36:35;;;;;;;4.18;1.85;;;25.20;94.70;;;;;;5049384;28;20048;-80
2022/07/18 08:39:01;;;;;;;3.97;1.90;;;25.40;94.20;;;;;;5059766;28;20033;-79
2022/07/18 08:41:27;;;;;;;6.68;1.80;;;25.40;93.70;;;;;;5058120;28;20051;-79
2022/07/18 08:43:53;;;;;;;4.18;1.70;;;25.50;93.70;;;;;;5053155;28;20415;-79
2022/07/18 08:46:21;;;;;;;11.13;2.22;;;25.50;93.20;;;;;;5053467;28;20033;-79
2022/07/18 08:48:48;;;;;;;4.65;1.75;;;25.40;93.00;;;;;;5046652;28;20136;-79
2022/07/18 08:51:15;;;;;;;6.82;1.48;;;25.30;92.60;;;;;;5038759;28;20093;-79
2022/07/18 08:53:40;;;;;;;5.00;1.67;;;25.20;92.40;;;;;;5033163;28;20061;-79
2022/07/18 08:56:06;;;;;;;3.70;1.60;;;25.10;92.50;;;;;;5050145;28;20037;-79
2022/07/18 08:58:32;;;;;;;5.75;1.60;;;25.10;92.90;;;;;;5043251;28;20474;-79
2022/07/18 09:00:58;;;;;;;5.25;1.80;;;25.00;93.30;;;;;;5051901;28;20089;-78
2022/07/18 09:03:25;;;;;;;4.22;1.60;;;24.90;93.50;;;;;;5049089;28;20040;-79
2022/07/18 09:06:08;;;;;;;5.68;1.88;;;24.80;93.30;;;;;;5047852;28;20041;-79
2022/07/18 09:08:35;;;;;;;3.42;1.60;;;24.70;93.30;;;;;;5039114;28;20068;-79
2022/07/18 09:11:02;;;;;;;4.93;1.60;;;24.70;93.70;;;;;;5044735;28;20086;-78
2022/07/18 09:13:33;;;;;;;3.63;1.50;;;24.80;93.70;;;;;;5047571;28;20105;-79
2022/07/18 09:16:05;;;;;;;2.85;1.42;;;25.00;93.80;;;;;;5038420;28;20037;-79
2022/07/18 09:18:42;;;;;;;6.60;1.52;;;25.10;93.40;;;;;;5049324;28;20041;-79
2022/07/18 09:21:12;;;;;;;4.05;1.50;;;25.10;92.70;;;;;;5040529;28;20025;-78
2022/07/18 09:23:43;;;;;;;4.95;1.38;;;25.20;93.10;;;;;;5037571;28;20041;-78
2022/07/18 09:26:10;;;;;;;4.50;1.52;;;25.30;92.40;;;;;;5038434;28;20048;-78
2022/07/18 09:28:53;;;;;;;5.03;1.40;;;25.40;92.50;;;;;;5020586;28;20130;-78
2022/07/18 09:31:19;;;;;;;3.97;1.40;;;25.50;92.60;;;;;;5038289;28;20534;-79
2022/07/18 09:33:59;;;;;;;3.55;1.42;;;25.60;92.00;;;;;;5037213;28;20054;-78
2022/07/18 09:36:26;;;;;;;4.28;1.35;;;25.80;91.70;;;;;;5036617;28;20033;-78
2022/07/18 09:38:52;;;;;;;8.40;1.25;;;26.00;91.80;;;;;;5020785;28;20430;-78
2022/07/18 09:41:30;;;;;;;3.50;1.35;;;26.10;92.00;;;;;;5021490;28;20038;-78
2022/07/18 09:43:55;;;;;;;5.55;1.63;;;26.20;91.50;;;;;;5034787;28;20091;-78
2022/07/18 09:46:22;;;;;;;6.25;1.60;;;26.20;90.50;;;;;;5034521;28;20037;-76
2022/07/18 09:48:47;;;;;;;4.10;1.60;;;26.10;89.60;;;;;;5044551;28;20048;-77
2022/07/18 09:51:13;;;;;;;4.85;1.60;;;26.20;90.00;;;;;;5046859;28;20025;-77
2022/07/18 09:53:41;;;;;;;4.07;1.38;;;26.30;90.00;;;;;;5040194;28;20167;-77
2022/07/18 09:56:12;;;;;;;6.60;1.65;;;26.40;90.00;;;;;;5047635;28;20033;-77
2022/07/18 09:58:40;;;;;;;5.03;1.70;;;26.50;90.40;;;;;;5031468;28;20056;-74
2022/07/18 10:01:08;;;;;;;4.30;1.70;;;26.70;90.50;;;;;;5031400;28;20577;-74
2022/07/18 10:03:34;;;;;;;5.90;1.73;;;26.80;90.20;;;;;;5031109;28;20042;-75
2022/07/18 10:06:01;;;;;;;4.93;1.90;;;26.90;89.40;;;;;;5030362;28;20124;-74
2022/07/18 10:08:31;;;;;;;7.07;1.65;;;26.90;89.30;;;;;;5039129;28;20044;-74
2022/07/18 10:10:59;;;;;;;6.05;1.60;;;27.00;88.90;;;;;;5043409;28;20045;-74
2022/07/18 10:13:26;;;;;;;4.75;1.80;;;27.00;88.00;;;;;;5044900;28;20049;-74
2022/07/18 10:15:52;;;;;;;5.22;1.77;;;27.00;88.00;;;;;;5049121;28;20395;-73
2022/07/18 10:18:24;;;;;;;4.53;1.80;;;27.10;89.40;;;;;;5056929;28;20045;-74
2022/07/18 10:21:01;;;;;;;6.22;2.30;;;27.10;87.80;;;;;;5045367;28;20033;-73
2022/07/18 10:23:32;;;;;;;4.15;2.38;;;27.10;88.30;;;;;;5044382;28;20495;-74
2022/07/18 10:26:18;;;;;;;16.00;2.83;;;27.10;86.90;;;;;;5029051;28;20041;-73
2022/07/18 10:28:56;;;;;;;7.63;2.60;;;27.20;85.80;;;;;;5035090;28;20075;-74
2022/07/18 10:31:29;;;;;;;4.72;2.20;;;27.30;86.70;;;;;;5045067;28;20410;-73
2022/07/18 10:34:12;;;;;;;5.60;2.22;;;27.40;86.40;;;;;;5045897;28;20152;-74
2022/07/18 10:36:51;;;;;;;4.93;2.40;;;27.50;84.40;;;;;;5034393;28;20124;-74
2022/07/18 10:39:23;;;;;;;7.18;2.60;;;27.60;85.30;;;;;;5042438;28;20079;-74
2022/07/18 10:41:55;;;;;;;4.25;2.35;;;27.80;83.90;;;;;;5047385;28;20388;-73
2022/07/18 10:44:26;;;;;;;7.05;2.80;;;27.90;83.10;;;;;;5046067;28;20048;-76
2022/07/18 10:47:17;;;;;;;5.05;2.45;;;28.00;81.50;;;;;;5036915;28;20080;-74
2022/07/18 10:49:52;;;;;;;3.85;2.47;;;28.10;75.20;;;;;;5032308;28;20100;-74
2022/07/18 10:52:26;;;;;;;6.28;2.53;;;28.10;81.20;;;;;;5046422;28;20041;-74
2022/07/18 10:55:16;;;;;;;4.25;2.58;;;28.20;80.60;;;;;;5032300;28;20061;-74
2022/07/18 10:57:50;;;;;;;6.85;2.70;;;28.30;80.40;;;;;;5046358;28;20082;-74
2022/07/18 11:00:22;;;;;;;5.60;2.80;;;28.40;81.70;;;;;;5045373;28;20033;-74
2022/07/18 11:03:00;;;;;;;5.20;2.17;;;28.50;81.80;;;;;;5025915;28;20079;-74
2022/07/18 11:05:26;;;;;;;4.82;2.30;;;28.50;81.00;;;;;;5024639;28;20047;-74
2022/07/18 11:07:58;;;;;;;4.68;2.53;;;28.60;80.60;;;;;;5046147;28;20507;-74
2022/07/18 11:10:50;;;;;;;5.35;2.30;;;28.90;81.00;;;;;;5044237;28;20048;-74
2022/07/18 11:13:27;;;;;;;6.00;2.53;;;29.20;80.10;;;;;;5015778;28;20042;-74
2022/07/18 11:16:19;;;;;;;7.43;2.90;;;29.20;79.10;;;;;;5044049;28;20052;-73
2022/07/18 11:18:45;;;;;;;3.47;2.72;;;29.20;79.20;;;;;;5031664;28;20485;-73
2022/07/18 11:21:28;;;;;;;3.30;2.45;;;29.30;77.90;;;;;;5044429;28;20033;-73
2022/07/18 11:24:06;;;;;;;4.50;2.30;;;29.50;78.40;;;;;;5060492;28;20044;-74
2022/07/18 11:26:32;;;;;;;4.20;2.70;;;29.60;77.00;;;;;;5047672;28;20318;-74
2022/07/18 11:29:00;;;;;;;4.55;3.10;;;29.80;78.20;;;;;;5043406;28;20082;-74
2022/07/18 11:31:27;;;;;;;7.50;3.00;;;29.90;74.70;;;;;;5044207;28;20394;-74
2022/07/18 11:33:53;;;;;;;5.55;3.08;;;30.00;74.70;;;;;;5044003;28;20029;-74
2022/07/18 11:36:21;;;;;;;4.25;2.80;;;30.20;76.10;;;;;;5042479;28;20091;-74
2022/07/18 11:38:52;;;;;;;6.05;3.20;;;30.30;75.00;;;;;;5023428;28;20579;-74
2022/07/18 11:41:19;;;;;;;4.45;2.90;;;30.30;73.80;;;;;;5044860;28;20051;-73
2022/07/18 11:43:46;;;;;;;4.85;2.60;;;30.50;75.60;;;;;;5059685;28;20789;-74
2022/07/18 11:46:16;;;;;;;4.15;2.63;;;30.60;75.50;;;;;;5026653;28;20029;-74
2022/07/18 11:48:44;;;;;;;4.05;2.60;;;30.80;75.10;;;;;;5044146;28;20037;-73
2022/07/18 11:51:14;;;;;;;5.32;3.10;;;30.80;75.20;;;;;;5031803;28;20083;-74
2022/07/18 11:53:48;;;;;;;4.45;2.85;;;30.90;75.20;;;;;;5043443;28;20546;-74
2022/07/18 11:56:15;;;;;;;5.65;3.20;;;31.10;74.60;;;;;;5041523;28;20098;-74
2022/07/18 11:58:42;;;;;;;4.38;3.25;;;31.20;74.70;;;;;;5049592;28;20083;-73
2022/07/18 12:01:08;;;;;;;6.93;3.00;;;31.30;73.10;;;;;;5043842;28;20068;-74
2022/07/18 12:03:37;;;;;;;4.15;3.10;;;31.40;72.10;;;;;;5045856;28;20036;-73
2022/07/18 12:06:20;;;;;;;4.53;3.47;;;31.50;71.10;;;;;;5047575;28;20064;-74
2022/07/18 12:08:47;;;;;;;4.72;3.03;;;31.60;71.60;;;;;;5033331;28;20045;-74
2022/07/18 12:11:24;;;;;;;11.63;3.90;;;31.60;71.70;;;;;;5046615;28;20072;-73
2022/07/18 12:13:59;;;;;;;6.70;3.47;;;31.40;71.90;;;;;;5040685;28;20506;-74
2022/07/18 12:16:26;;;;;;;7.95;3.30;;;31.60;72.40;;;;;;5043514;28;20128;-74
2022/07/18 12:18:54;;;;;;;5.47;2.90;;;31.70;71.10;;;;;;5045525;28;20098;-74
2022/07/18 12:21:21;;;;;;;4.47;3.08;;;32.00;70.40;;;;;;5047114;28;20090;-74
2022/07/18 12:23:46;;;;;;;5.72;3.08;;;32.10;70.90;;;;;;5034816;28;20037;-73
2022/07/18 12:26:31;;;;;;;4.28;3.40;;;32.20;71.20;;;;;;5048268;28;20128;-74
2022/07/18 12:29:23;;;;;;;4.53;3.42;;;32.50;71.00;;;;;;5034900;28;20044;-74
2022/07/18 12:31:49;;;;;;;4.70;3.45;;;32.60;69.90;;;;;;5029638;28;20679;-74
2022/07/18 12:34:16;;;;;;;5.03;3.50;;;32.70;70.50;;;;;;5036122;28;20033;-74
2022/07/18 12:36:52;;;;;;;5.18;3.40;;;32.70;69.60;;;;;;5039868;28;20121;-73
2022/07/18 12:39:29;;;;;;;4.53;3.10;;;32.60;68.80;;;;;;5053076;28;20052;-73
2022/07/18 12:41:56;;;;;;;4.82;3.65;;;32.40;68.30;;;;;;5033355;28;20423;-74
2022/07/18 12:44:22;;;;;;;4.18;3.60;;;32.10;66.30;;;;;;5031860;28;20037;-74
2022/07/18 12:46:47;;;;;;;3.83;3.20;;;31.90;67.10;;;;;;5043502;28;20044;-73
2022/07/18 12:49:13;;;;;;;5.97;3.50;;;31.90;67.10;;;;;;5045729;28;20131;-73
2022/07/18 12:51:38;;;;;;;7.65;3.40;;;32.00;66.50;;;;;;5046650;28;20033;-74